Humidity-temperature Sensor

Selected Measurement Type: Air Temperature

 
Air Temperature [°C]     6 entries per hour
Showing data from 9/9/2018 (00:00:00 Z) to 9/8/2018 (00:01:00 Z)
Previous Next [ Day | 3-Days | 7-Days ]
First Last
Prev [ Day | 3-Days | 7-Days ] Next
First Last

Start Time:     :
End Time:     :     
Time (in GMT) :00 :50 :40 :30 :20 :10
Previous Next [ Day | 3-Days | 7-Days ]
First Last
Prev [ Day | 3-Days | 7-Days ] Next
First Last


123 => good data
MM => data is determined as missing
-- => data not received/configured
Back to Top Back to Top
9/9/2018 00:00 to 23:10 24.52 24.48 24.65 24.40 24.52 24.41
9/8/2018 23:00 to 22:10 24.48 24.35 24.33 24.32 24.36 24.39
9/8/2018 22:00 to 21:10 24.31 24.21 24.24 24.19 24.19 24.14
9/8/2018 21:00 to 20:10 24.08 24.07 24.06 24.12 24.02 24.00
9/8/2018 20:00 to 19:10 23.99 23.95 24.02 23.92 23.95 24.06
9/8/2018 19:00 to 18:10 24.01 23.96 24.03 24.03 23.94 24.01
9/8/2018 18:00 to 17:10 23.96 24.06 24.01 24.09 24.11 23.96
9/8/2018 17:00 to 16:10 24.08 24.18 24.15 24.33 24.20 24.26
9/8/2018 16:00 to 15:10 24.24 24.10 24.39 24.38 24.28 24.01
9/8/2018 15:00 to 14:10 23.99 23.81 23.78 23.77 23.65 23.95
9/8/2018 14:00 to 13:10 23.88 23.87 23.71 23.74 23.87 23.84
9/8/2018 13:00 to 12:10 23.83 23.92 23.80 23.78 23.79 23.75
9/8/2018 12:00 to 11:10 23.74 23.68 23.68 23.61 23.73 23.76
9/8/2018 11:00 to 10:10 23.84 23.90 23.93 23.81 23.64 23.72
9/8/2018 10:00 to 9:10 23.69 23.79 23.61 23.75 23.67 23.83
9/8/2018 09:00 to 8:10 23.69 23.82 23.78 23.78 23.88 23.82
9/8/2018 08:00 to 7:10 23.79 23.82 23.92 23.83 23.86 23.90
9/8/2018 07:00 to 6:10 23.96 24.00 23.83 23.95 23.96 23.83
9/8/2018 06:00 to 5:10 23.93 23.93 24.01 23.99 24.04 23.98
9/8/2018 05:00 to 4:10 24.00 24.06 24.03 24.07 24.06 24.13
9/8/2018 04:00 to 3:10 24.22 24.22 24.20 24.26 24.21 24.27
9/8/2018 03:00 to 2:10 24.25 24.23 24.20 24.34 24.35 24.34
9/8/2018 02:00 to 1:10 24.38 24.33 24.51 24.37 24.41 24.22
9/8/2018 01:00 to 0:10 24.29 24.42 24.27 24.37 24.32 24.46